Strona główna
METAR-TAF:

METAR-TAF

Lotnisko :

Port Meadville Airport

Meadville, Pensylwania, Stany Zjednoczone

Szerokość geograficzna: 41-37-35N, Długość geograficzna: 080-12-53W, wysokość: 427 m

Aktualna obserwacja pogody

Raport powstał 47 minut temu, godzina 06:53 UTC
Wiatr 7 kt od północny wschód
Temperatura 2°C
Wilgotność 93%
Ciśnienie 1010 hPa
Widzialność: 16.1 km
Przerywane chmury na wysokości 600 ft
Zachmurzenie całkowite na wysokości 1800 ft
słaby deszcz

METAR: KGKJ 260653Z AUTO 04007KT 10SM -RA BKN006 OVC018 02/01 A2983 RMK AO2 UPE00RAB00 SLP107 P0000 T00220011

czas: 02:40 (07:40 UTC)


TAF: brakujący

Obserwacja i prognoza pogody dla ponad 4000 lotnisk (raport METAR i TAF).

Dostępne stacje oznaczono żółtymi i czerwonymi punktami na mapie.

Najedź kursorem aby zobaczyć nazwę stacji.

Kliknij aby zobaczyć obserwacje i prognozy pogody.

Aby zmienić mapę: kliknij na zielony przycisk z czarnym krzyżykiem, aby powiększyć; na zielony przycisk z myślnikiem, aby pomniejszyć; na zielone strzałki, aby przejść do map sąsiednich.


METAR-TAF: